Time;durP1;ratioP1;P1;durP2;ratioP2;P2;SDS_P1;SDS_P2;PMS_P1;PMS_P2;Temp;Humidity;BMP_temperature;BMP_pressure;BME280_temperature;BME280_humidity;BME280_pressure;Samples;Min_cycle;Max_cycle;Signal;HPM_P1;HPM_P2
2023/10/09 00:00:51;;;;;;;18.70;12.93;;;;;;;14.21;100.00;101883.75;5085460;28;20035;-68
2023/10/09 00:03:22;;;;;;;18.60;12.95;;;;;;;14.23;100.00;101875.34;5090137;28;20086;-68
2023/10/09 00:05:47;;;;;;;18.95;13.18;;;;;;;14.27;100.00;101866.50;5091539;28;20036;-68
2023/10/09 00:08:21;;;;;;;19.83;13.77;;;;;;;14.29;100.00;101866.28;5089245;28;20032;-69
2023/10/09 00:10:53;;;;;;;19.83;13.48;;;;;;;14.30;100.00;101855.16;5092217;28;20032;-70
2023/10/09 00:13:30;;;;;;;19.08;13.88;;;;;;;14.34;100.00;101864.56;5086271;28;20123;-69
2023/10/09 00:16:01;;;;;;;22.65;13.93;;;;;;;14.40;100.00;101853.81;5092785;28;20088;-69
2023/10/09 00:18:29;;;;;;;21.20;14.13;;;;;;;14.42;100.00;101851.69;5090665;28;20028;-70
2023/10/09 00:21:11;;;;;;;20.48;13.52;;;;;;;14.41;100.00;101837.25;5083369;28;20025;-69
2023/10/09 00:23:37;;;;;;;19.02;13.98;;;;;;;14.43;100.00;101851.50;5075568;28;20035;-69
2023/10/09 00:26:19;;;;;;;20.75;13.57;;;;;;;14.46;100.00;101852.91;5090620;28;20411;-71
2023/10/09 00:28:47;;;;;;;19.10;12.90;;;;;;;14.48;100.00;101850.81;5083545;28;20031;-69
2023/10/09 00:31:15;;;;;;;18.50;13.40;;;;;;;14.50;100.00;101851.41;5089153;28;20081;-69
2023/10/09 00:33:42;;;;;;;22.63;14.25;;;;;;;14.50;100.00;101843.22;5087214;28;20032;-68
2023/10/09 00:36:10;;;;;;;17.95;13.27;;;;;;;14.50;100.00;101835.06;5094052;28;20464;-69
2023/10/09 00:38:46;;;;;;;20.67;12.95;;;;;;;14.53;100.00;101827.25;5090579;28;20093;-70
2023/10/09 00:41:19;;;;;;;20.13;14.30;;;;;;;14.57;100.00;101819.47;5079989;28;20028;-68
2023/10/09 00:43:44;;;;;;;20.35;13.02;;;;;;;14.57;100.00;101824.94;5095386;28;20112;-69
2023/10/09 00:46:23;;;;;;;20.23;12.73;;;;;;;14.58;100.00;101812.94;5093145;28;20062;-68
2023/10/09 00:49:02;;;;;;;19.20;13.57;;;;;;;14.61;100.00;101807.06;5089269;28;20440;-68
2023/10/09 00:51:34;;;;;;;17.77;13.20;;;;;;;14.63;100.00;101815.03;5094081;28;20036;-69
2023/10/09 00:54:06;;;;;;;18.50;12.60;;;;;;;14.64;100.00;101825.69;5093487;28;20371;-68
2023/10/09 00:56:39;;;;;;;22.00;13.55;;;;;;;14.63;100.00;101829.50;5095270;28;20024;-68
2023/10/09 00:59:20;;;;;;;17.77;13.45;;;;;;;14.66;100.00;101826.31;5087120;28;20032;-70
2023/10/09 01:01:56;;;;;;;19.27;13.40;;;;;;;14.70;100.00;101834.84;5091734;28;20097;-69
2023/10/09 01:04:25;;;;;;;21.45;13.15;;;;;;;14.71;100.00;101829.16;5092704;28;20085;-70
2023/10/09 01:07:05;;;;;;;19.50;13.10;;;;;;;14.71;100.00;101826.44;5092918;28;20424;-69
2023/10/09 01:09:38;;;;;;;19.67;13.05;;;;;;;14.70;100.00;101822.06;5089862;28;20028;-69
2023/10/09 01:12:04;;;;;;;20.33;13.55;;;;;;;14.71;100.00;101831.06;5093387;28;20084;-69
2023/10/09 01:14:36;;;;;;;18.88;13.68;;;;;;;14.69;100.00;101820.41;5089972;28;20040;-70
2023/10/09 01:17:02;;;;;;;18.15;12.90;;;;;;;14.71;100.00;101822.91;5080518;28;20404;-69
2023/10/09 01:19:27;;;;;;;20.00;13.35;;;;;;;14.71;100.00;101825.63;5086255;28;20027;-70
2023/10/09 01:21:54;;;;;;;16.80;12.60;;;;;;;14.71;100.00;101828.34;5074566;28;20029;-69
2023/10/09 01:24:20;;;;;;;19.55;13.40;;;;;;;14.70;100.00;101821.22;5073865;28;20047;-70
2023/10/09 01:26:46;;;;;;;16.48;12.48;;;;;;;14.71;100.00;101825.63;5074705;28;20037;-69
2023/10/09 01:29:20;;;;;;;18.35;12.45;;;;;;;14.71;100.00;101829.16;5077650;28;20392;-70
2023/10/09 01:31:56;;;;;;;17.80;12.55;;;;;;;14.74;100.00;101833.34;5075654;28;20028;-70
2023/10/09 01:34:32;;;;;;;18.02;11.90;;;;;;;14.73;100.00;101830.84;5082995;28;20040;-69
2023/10/09 01:36:59;;;;;;;18.80;12.43;;;;;;;14.70;100.00;101848.47;5091944;28;20042;-70
2023/10/09 01:39:28;;;;;;;17.40;12.30;;;;;;;14.74;100.00;101837.97;5088376;28;20089;-70
2023/10/09 01:42:05;;;;;;;18.08;12.73;;;;;;;14.74;100.00;101840.69;5087704;28;20048;-69
2023/10/09 01:44:43;;;;;;;16.00;12.15;;;;;;;14.71;100.00;101834.63;5092115;28;20028;-70
2023/10/09 01:47:09;;;;;;;15.13;11.77;;;;;;;14.68;100.00;101823.34;5088891;28;20035;-69
2023/10/09 01:49:37;;;;;;;16.33;12.25;;;;;;;14.75;100.00;101823.25;5092485;28;20028;-69
2023/10/09 01:52:07;;;;;;;18.38;12.55;;;;;;;14.73;100.00;101830.84;5092817;28;20032;-71
2023/10/09 01:54:39;;;;;;;18.88;12.40;;;;;;;14.71;100.00;101820.19;5089215;28;20029;-70
2023/10/09 01:57:09;;;;;;;16.33;12.40;;;;;;;14.62;100.00;101833.28;5075216;28;20031;-71
2023/10/09 01:59:38;;;;;;;19.30;13.55;;;;;;;14.65;100.00;101818.38;5084439;28;20067;-70
2023/10/09 02:04:54;;;;;;;16.25;11.90;;;;;;;14.65;100.00;101823.81;5077083;28;20046;-70
2023/10/09 02:07:26;;;;;;;17.88;12.45;;;;;;;14.67;100.00;101818.97;5081280;28;20039;-71
2023/10/09 02:09:53;;;;;;;16.70;11.77;;;;;;;14.68;100.00;101823.34;5091686;28;20032;-71
2023/10/09 02:12:19;;;;;;;18.25;12.00;;;;;;;14.68;100.00;101823.34;5087064;28;20047;-70
2023/10/09 02:14:44;;;;;;;15.95;8.02;;;;;;;14.77;100.00;101827.44;5086879;28;20040;-70
2023/10/09 02:17:17;;;;;;;18.15;12.43;;;;;;;14.68;100.00;101818.72;5086268;28;20073;-70
2023/10/09 02:19:48;;;;;;;19.85;12.85;;;;;;;14.69;100.00;101816.84;5088257;28;20032;-70
2023/10/09 02:22:14;;;;;;;18.90;12.40;;;;;;;14.66;100.00;101809.13;5072806;28;20028;-71
2023/10/09 02:24:58;;;;;;;17.67;12.65;;;;;;;14.67;100.00;101811.63;5078272;28;20110;-69
2023/10/09 02:27:53;;;;;;;17.98;12.45;;;;;;;14.66;100.00;101811.84;5087991;28;20483;-71
2023/10/09 02:30:27;;;;;;;17.63;12.35;;;;;;;14.65;100.00;101811.00;5086831;28;20032;-69
2023/10/09 02:33:06;;;;;;;16.65;12.43;;;;;;;14.63;100.00;101804.13;5093454;28;20032;-69
2023/10/09 02:35:37;;;;;;;16.00;11.98;;;;;;;14.61;100.00;101796.19;5092532;28;20031;-69
2023/10/09 02:38:06;;;;;;;15.63;11.65;;;;;;;14.62;100.00;101792.41;5082925;28;20120;-70
2023/10/09 02:40:32;;;;;;;17.85;11.93;;;;;;;14.61;100.00;101790.72;5075220;28;20464;-71
2023/10/09 02:42:58;;;;;;;17.20;12.55;;;;;;;14.62;100.00;101797.03;5093204;28;20028;-70
2023/10/09 02:45:29;;;;;;;20.33;12.15;;;;;;;14.60;100.00;101778.16;5092958;28;20536;-70
2023/10/09 02:47:55;;;;;;;15.73;11.57;;;;;;;14.62;100.00;101776.06;5090406;28;20039;-70
2023/10/09 02:50:21;;;;;;;21.38;12.07;;;;;;;14.60;100.00;101772.72;5091536;28;20130;-69
2023/10/09 02:52:52;;;;;;;15.95;11.43;;;;;;;14.62;100.00;101786.97;5091009;28;20044;-69
2023/10/09 02:55:26;;;;;;;19.02;12.55;;;;;;;14.58;100.00;101779.44;5092812;28;20027;-71
2023/10/09 02:58:04;;;;;;;18.92;12.55;;;;;;;14.56;100.00;101782.41;5089700;28;20039;-69
2023/10/09 03:00:31;;;;;;;18.55;12.63;;;;;;;14.60;100.00;101782.75;5088768;28;20119;-69
2023/10/09 03:02:58;;;;;;;18.45;12.32;;;;;;;14.58;100.00;101799.34;5093221;28;20112;-70
2023/10/09 03:05:27;;;;;;;17.35;11.63;;;;;;;14.57;100.00;101788.66;5091313;28;20364;-70
2023/10/09 03:07:53;;;;;;;17.33;11.82;;;;;;;14.59;100.00;101792.00;5088958;28;20229;-70
2023/10/09 03:10:19;;;;;;;18.77;12.50;;;;;;;14.53;100.00;101793.75;5090190;28;20088;-69
2023/10/09 03:12:44;;;;;;;19.13;12.55;;;;;;;14.57;100.00;101792.25;5090828;28;20052;-70
2023/10/09 03:15:11;;;;;;;16.92;12.00;;;;;;;14.56;100.00;101782.41;5082076;28;20481;-70
2023/10/09 03:17:36;;;;;;;16.92;12.35;;;;;;;14.53;100.00;101783.69;5079471;28;20055;-70
2023/10/09 03:20:12;;;;;;;19.25;12.55;;;;;;;14.56;100.00;101781.56;5090303;28;20054;-71
2023/10/09 03:22:38;;;;;;;18.05;12.77;;;;;;;14.52;100.00;101765.69;5092437;28;20048;-70
2023/10/09 03:25:11;;;;;;;18.88;12.52;;;;;;;14.53;100.00;101761.88;5089391;28;20031;-71
2023/10/09 03:27:41;;;;;;;17.95;12.45;;;;;;;14.55;100.00;101764.38;5091762;28;20070;-70
2023/10/09 03:30:10;;;;;;;17.15;11.98;;;;;;;14.52;100.00;101753.94;5082532;28;20111;-69
2023/10/09 03:32:35;;;;;;;17.65;13.00;;;;;;;14.55;100.00;101750.75;5081474;28;20028;-69
2023/10/09 03:35:03;;;;;;;14.40;11.48;;;;;;;14.54;100.00;101760.03;5085083;28;20081;-69
2023/10/09 03:37:39;;;;;;;19.35;12.70;;;;;;;14.52;100.00;101753.94;5081773;28;20593;-70
2023/10/09 03:40:07;;;;;;;18.13;12.43;;;;;;;14.54;100.00;101752.66;5083494;28;20570;-70
2023/10/09 03:42:36;;;;;;;19.85;12.23;;;;;;;14.49;100.00;101748.97;5087144;28;20179;-69
2023/10/09 03:45:03;;;;;;;17.98;12.10;;;;;;;14.49;100.00;101744.38;5084695;28;20039;-70
2023/10/09 03:47:29;;;;;;;22.00;7.95;;;;;;;14.60;100.00;101740.03;5087754;28;20474;-70
2023/10/09 03:49:55;;;;;;;17.25;11.65;;;;;;;14.53;100.00;101742.81;5092570;28;20027;-71
2023/10/09 03:52:25;;;;;;;19.40;12.20;;;;;;;14.54;100.00;101746.41;5096211;28;20387;-69
2023/10/09 03:54:50;;;;;;;17.17;12.55;;;;;;;14.49;100.00;101743.50;5095190;28;20060;-70
2023/10/09 03:57:19;;;;;;;18.15;12.48;;;;;;;14.49;100.00;101738.06;5086540;28;20055;-73
2023/10/09 03:59:47;;;;;;;16.65;12.70;;;;;;;14.49;100.00;101740.78;5095129;28;20020;-69
2023/10/09 04:02:13;;;;;;;17.48;12.60;;;;;;;14.46;100.00;101749.41;5092462;28;20429;-68
2023/10/09 04:04:38;;;;;;;17.25;12.95;;;;;;;14.44;100.00;101741.47;5095237;28;20036;-69
2023/10/09 04:07:06;;;;;;;17.83;12.63;;;;;;;14.46;100.00;101746.69;5092499;28;20391;-69
2023/10/09 04:09:39;;;;;;;22.40;12.95;;;;;;;14.45;100.00;101753.22;5093618;28;20024;-77
2023/10/09 04:15:01;;;;;;;17.60;12.93;;;;;;;14.45;100.00;101751.31;5095350;28;20077;-69
2023/10/09 04:17:33;;;;;;;17.65;12.95;;;;;;;14.43;100.00;101749.88;5094696;28;20035;-69
2023/10/09 04:22:50;;;;;;;18.27;13.15;;;;;;;14.42;100.00;101738.16;5094517;28;19923;-69
2023/10/09 04:25:29;;;;;;;18.92;12.48;;;;;;;14.36;100.00;101726.28;5094661;28;20028;-69
2023/10/09 04:28:08;;;;;;;20.35;13.15;;;;;;;14.39;100.00;101724.16;5093186;28;20032;-69
2023/10/09 04:30:42;;;;;;;17.92;12.90;;;;;;;14.40;100.00;101723.09;5094694;28;20028;-68
2023/10/09 04:33:27;;;;;;;17.80;13.13;;;;;;;14.41;100.00;101716.63;5094822;28;20028;-69
2023/10/09 04:36:16;;;;;;;18.42;13.07;;;;;;;14.45;100.00;101739.59;5095737;28;20024;-69
2023/10/09 04:38:52;;;;;;;18.90;12.68;;;;;;;14.45;100.00;101758.69;5081909;28;20495;-68
2023/10/09 04:41:27;;;;;;;21.40;13.07;;;;;;;14.43;100.00;101756.19;5094011;28;20035;-68
2023/10/09 04:43:55;;;;;;;18.88;13.57;;;;;;;14.43;100.00;101767.06;5093879;28;20463;-69
2023/10/09 04:46:23;;;;;;;17.65;12.75;;;;;;;14.38;100.00;101774.25;5093906;28;20477;-69
2023/10/09 04:48:52;;;;;;;17.88;12.77;;;;;;;14.41;100.00;101769.16;5092537;28;20403;-68
2023/10/09 04:51:20;;;;;;;20.35;12.95;;;;;;;14.41;100.00;101768.34;5093494;28;20395;-69
2023/10/09 04:53:59;;;;;;;19.38;12.95;;;;;;;14.40;100.00;101777.56;5094231;28;20024;-68
2023/10/09 04:56:25;;;;;;;19.88;13.02;;;;;;;14.43;100.00;101766.22;5093907;28;20028;-68
2023/10/09 04:59:03;;;;;;;18.92;13.10;;;;;;;14.40;100.00;101751.16;5090194;28;20459;-68
2023/10/09 05:01:43;;;;;;;22.48;13.60;;;;;;;14.42;100.00;101745.47;5088749;28;20100;-68
2023/10/09 05:04:26;;;;;;;21.48;14.05;;;;;;;14.40;100.00;101751.16;5094215;28;20520;-68
2023/10/09 05:06:55;;;;;;;19.67;13.27;;;;;;;14.41;100.00;101760.19;5095186;28;20028;-69
2023/10/09 05:09:21;;;;;;;20.42;12.98;;;;;;;14.41;100.00;101760.19;5090899;28;20395;-68
2023/10/09 05:11:53;;;;;;;19.50;13.15;;;;;;;14.43;100.00;101755.31;5093734;28;20031;-68
2023/10/09 05:14:38;;;;;;;;;;;;;;;14.50;100.00;101759.63;5089180;28;20658;-68
2023/10/09 05:17:15;;;;;;;21.38;14.43;;;;;;;14.46;100.00;101773.94;5081100;28;20010;-68
2023/10/09 05:20:47;;;;;;;20.92;13.85;;;;;;;14.47;100.00;101762.00;5092085;28;20027;-69
2023/10/09 05:22:53;;;;;;;16.23;8.00;;;;;;;14.54;100.00;101757.28;5091430;28;20056;-68
2023/10/09 05:25:39;;;;;;;19.88;13.85;;;;;;;14.48;100.00;101772.66;5094466;28;20036;-68
2023/10/09 05:28:25;;;;;;;19.38;13.55;;;;;;;14.49;100.00;101777.06;5078663;28;20059;-68
2023/10/09 05:30:55;;;;;;;22.95;14.35;;;;;;;14.48;100.00;101763.66;5077665;28;20044;-68
2023/10/09 05:33:29;;;;;;;;;;;;;;;14.58;100.00;101783.00;5088302;28;20042;-68
2023/10/09 05:38:58;;;;;;;18.55;13.85;;;;;;;14.54;100.00;101790.81;5068367;28;20036;-68
2023/10/09 05:45:29;;;;;;;23.35;14.68;;;;;;;14.55;100.00;101802.50;5084580;28;20066;-68
2023/10/09 05:47:29;;;;;;;20.08;13.80;;;;;;;14.53;100.00;101794.56;5083871;28;20426;-68
2023/10/09 05:49:57;;;;;;;21.23;15.05;;;;;;;14.55;100.00;101791.63;5091956;28;20024;-69
2023/10/09 05:52:32;;;;;;;20.63;15.05;;;;;;;14.54;100.00;101790.81;5092706;28;20032;-69
2023/10/09 06:03:25;;;;;;;26.70;15.35;;;;;;;14.56;100.00;101817.81;5088841;28;20054;-69
2023/10/09 06:34:46;;;;;;;25.75;16.15;;;;;;;14.70;100.00;101816.63;5091547;28;20036;-68
2023/10/09 06:42:33;;;;;;;26.63;16.77;;;;;;;14.71;100.00;101829.16;5088731;28;20437;-76
2023/10/09 06:45:16;;;;;;;25.90;16.33;;;;;;;14.74;100.00;101832.50;5086394;28;20036;-71
2023/10/09 06:48:07;;;;;;;21.98;16.65;;;;;;;14.74;100.00;101827.06;5092136;28;20020;-72
2023/10/09 06:53:19;;;;;;;34.50;17.52;;;;;;;14.75;100.00;101820.53;5092358;28;20038;-69
2023/10/09 06:56:05;;;;;;;29.92;17.65;;;;;;;14.76;100.00;101814.03;5091675;28;20028;-69
2023/10/09 06:58:41;;;;;;;24.67;16.63;;;;;;;14.77;100.00;101810.25;5074942;28;20024;-71
2023/10/09 07:01:25;;;;;;;33.92;17.30;;;;;;;14.75;100.00;101799.59;5087150;28;20032;-73
2023/10/09 07:03:53;;;;;;;25.40;16.58;;;;;;;14.76;100.00;101797.69;5087217;28;20632;-71
2023/10/09 07:17:26;;;;;;;19.70;15.65;;;;;;;14.83;100.00;101750.22;5091535;28;20064;-72
2023/10/09 07:22:29;;;;;;;21.83;16.38;;;;;;;14.85;100.00;101769.88;5092346;28;20051;-73
2023/10/09 07:24:58;;;;;;;21.27;15.95;;;;;;;14.87;100.00;101764.19;5090579;28;20571;-70
2023/10/09 07:27:44;;;;;;;26.23;16.40;;;;;;;14.88;100.00;101769.41;5092413;28;20043;-78
2023/10/09 07:32:54;;;;;;;24.35;16.42;;;;;;;14.92;100.00;101794.31;5078980;28;20059;-70
2023/10/09 07:38:09;;;;;;;23.33;16.80;;;;;;;14.95;100.00;101834.75;5089745;28;20505;-76
2023/10/09 07:43:45;;;;;;;24.88;16.42;;;;;;;14.98;100.00;101850.63;5049385;28;20546;-76
2023/10/09 07:47:14;;;;;;;22.60;15.80;;;;;;;14.96;100.00;101847.31;5077767;28;20084;-69
2023/10/09 07:49:08;;;;;;;24.15;18.17;;;;;;;14.97;100.00;101851.69;5086291;28;20092;-75
2023/10/09 07:51:36;;;;;;;22.05;16.65;;;;;;;14.99;100.00;101849.59;5092168;28;20028;-71
2023/10/09 07:54:14;;;;;;;22.10;16.02;;;;;;;14.99;100.00;101835.97;5091125;28;20035;-71
2023/10/09 07:56:45;;;;;;;22.83;15.90;;;;;;;14.98;100.00;101820.66;5085155;28;20028;-71
2023/10/09 07:59:18;;;;;;;23.90;16.50;;;;;;;14.99;100.00;101807.84;5092307;28;20040;-77
2023/10/09 08:01:54;;;;;;;25.70;17.13;;;;;;;15.03;100.00;101814.50;5088509;28;20024;-72
2023/10/09 08:04:39;;;;;;;22.30;16.73;;;;;;;15.02;100.00;101813.69;5081288;28;20433;-75
2023/10/09 08:07:09;;;;;;;22.65;17.17;;;;;;;15.05;100.00;101818.69;5091583;28;20062;-75
2023/10/09 08:09:46;;;;;;;26.30;16.40;;;;;;;15.09;100.00;101820.94;5090705;28;20032;-75
2023/10/09 08:12:38;;;;;;;26.77;17.00;;;;;;;15.10;100.00;101825.31;5091962;28;20044;-82
2023/10/09 08:17:53;;;;;;;26.13;17.10;;;;;;;15.17;100.00;101828.78;5089858;28;20070;-76
2023/10/09 08:20:24;;;;;;;23.60;16.95;;;;;;;15.21;100.00;101832.72;5090154;28;20071;-75
2023/10/09 08:22:52;;;;;;;;;;;;;;;15.31;100.00;101832.13;5091429;28;20534;-75
2023/10/09 08:25:27;;;;;;;24.92;16.45;;;;;;;15.28;100.00;101835.31;5087758;28;19969;-73
2023/10/09 08:27:54;;;;;;;22.23;16.25;;;;;;;15.31;100.00;101826.69;5092021;28;20028;-74
2023/10/09 08:30:28;;;;;;;33.22;18.00;;;;;;;15.35;100.00;101825.16;5092254;28;20456;-75
2023/10/09 08:33:03;;;;;;;34.80;17.73;;;;;;;15.39;100.00;101816.28;5086517;28;20383;-75
2023/10/09 08:35:48;;;;;;;27.25;17.85;;;;;;;15.45;100.00;101814.50;5088633;28;20157;-77
2023/10/09 08:38:17;;;;;;;26.15;17.25;;;;;;;15.49;100.00;101807.53;5093147;28;20031;-74
2023/10/09 08:40:45;;;;;;;25.75;16.92;;;;;;;15.54;100.00;101810.38;5092749;28;20120;-74
2023/10/09 08:43:18;;;;;;;23.75;16.52;;;;;;;15.58;100.00;101811.56;5094738;28;20119;-73
2023/10/09 08:45:51;;;;;;;24.40;17.38;;;;;;;15.62;100.00;101811.94;5081996;28;20031;-74
2023/10/09 08:48:17;;;;;;;34.30;18.35;;;;;;;15.66;100.00;101806.84;5088476;28;20024;-74
2023/10/09 08:50:47;;;;;;;24.13;17.00;;;;;;;15.69;100.00;101812.66;5094936;28;20028;-74
2023/10/09 08:53:13;;;;;;;23.58;16.27;;;;;;;15.72;100.00;101806.72;5095585;28;20071;-75
2023/10/09 08:55:41;;;;;;;27.60;16.98;;;;;;;15.75;100.00;101800.78;5092131;28;20024;-75
2023/10/09 08:58:15;;;;;;;24.90;17.15;;;;;;;15.82;100.00;101797.16;5089693;28;20040;-74
2023/10/09 09:00:45;;;;;;;21.13;15.57;;;;;;;15.88;100.00;101807.97;5072418;28;20158;-74
2023/10/09 09:03:12;;;;;;;26.23;16.88;;;;;;;15.92;100.00;101800.94;5073574;28;20033;-75
2023/10/09 09:05:37;;;;;;;24.35;17.90;;;;;;;15.94;100.00;101806.16;5081721;28;20032;-74
2023/10/09 09:08:04;;;;;;;24.42;16.95;;;;;;;15.99;100.00;101806.28;5110067;28;20031;-74
2023/10/09 09:10:35;;;;;;;30.23;18.05;;;;;;;16.01;100.00;101809.59;5092113;28;20360;-74
2023/10/09 09:13:03;;;;;;;27.75;17.48;;;;;;;16.07;100.00;101813.28;5074475;28;20049;-75
2023/10/09 09:15:32;;;;;;;26.65;17.85;;;;;;;16.12;100.00;101816.97;5075296;28;20135;-75
2023/10/09 09:18:17;;;;;;;27.38;18.10;;;;;;;16.16;100.00;101820.03;5093033;28;20032;-75
2023/10/09 09:20:45;;;;;;;24.90;17.02;;;;;;;16.25;100.00;101832.25;5093815;28;20024;-75
2023/10/09 09:23:12;;;;;;;27.25;17.90;;;;;;;16.36;100.00;101843.41;5089991;28;20042;-76
2023/10/09 09:25:44;;;;;;;23.13;17.30;;;;;;;16.41;100.00;101855.28;5092142;28;20035;-78
2023/10/09 09:28:12;;;;;;;24.35;16.33;;;;;;;16.46;100.00;101855.41;5093073;28;20028;-73
2023/10/09 09:30:40;;;;;;;24.33;17.00;;;;;;;16.53;100.00;101854.44;5092518;28;20047;-78
2023/10/09 09:33:39;;;;;;;24.08;16.73;;;;;;;16.60;100.00;101860.59;5094921;28;20137;-78
2023/10/09 09:36:06;;;;;;;22.63;16.52;;;;;;;16.63;100.00;101865.59;5087463;28;20028;-76
2023/10/09 09:38:42;;;;;;;28.27;17.40;;;;;;;16.66;100.00;101870.56;5082248;28;20114;-77
2023/10/09 09:41:08;;;;;;;21.25;16.50;;;;;;;16.70;100.00;101865.44;5091526;28;20028;-77
2023/10/09 09:43:36;;;;;;;25.17;17.30;;;;;;;16.73;100.00;101864.97;5072301;28;20036;-75
2023/10/09 09:46:07;;;;;;;24.60;16.70;;;;;;;16.78;100.00;101874.09;5075702;28;20033;-75
2023/10/09 09:48:33;;;;;;;;;;;;;;;16.85;100.00;101884.91;5094589;28;20379;-75
2023/10/09 09:51:01;;;;;;;23.92;17.00;;;;;;;16.86;100.00;101881.09;5091987;28;19912;-75
2023/10/09 09:53:26;;;;;;;26.50;18.35;;;;;;;16.89;100.00;101879.81;5092968;28;20047;-75
2023/10/09 09:55:57;;;;;;;29.25;17.98;;;;;;;16.93;100.00;101884.56;5091253;28;20472;-76
2023/10/09 09:58:26;;;;;;;28.48;18.15;;;;;;;16.97;100.00;101887.66;5094429;28;20027;-75
2023/10/09 10:01:24;;;;;;;26.27;18.50;;;;;;;16.99;100.00;101882.75;5090756;28;20032;-78
2023/10/09 10:03:57;;;;;;;26.90;18.55;;;;;;;17.06;100.00;101885.34;5087117;28;20463;-76
2023/10/09 10:06:26;;;;;;;28.83;19.17;;;;;;;17.09;100.00;101882.13;5089172;28;20023;-76
2023/10/09 10:08:52;;;;;;;32.28;20.15;;;;;;;17.12;100.00;101887.09;5083051;28;20562;-76
2023/10/09 10:11:52;;;;;;;29.58;19.85;;;;;;;17.18;100.00;101888.84;5092564;28;20062;-76
2023/10/09 10:14:32;;;;;;;24.33;18.40;;;;;;;17.20;100.00;101888.63;5092409;28;20032;-73
2023/10/09 10:17:27;;;;;;;27.20;19.70;;;;;;;17.22;100.00;101887.31;5092465;28;20036;-78
2023/10/09 10:20:00;;;;;;;31.23;19.08;;;;;;;17.24;100.00;101895.25;5078790;28;20040;-74
2023/10/09 10:22:27;;;;;;;29.25;19.50;;;;;;;17.24;100.00;101878.84;5090097;28;20540;-77
2023/10/09 10:24:53;;;;;;;28.70;20.00;;;;;;;17.29;100.00;101887.16;5073065;28;20024;-75
2023/10/09 10:27:26;;;;;;;27.52;20.05;;;;;;;17.30;100.00;101894.28;5073183;28;20028;-74
2023/10/09 10:30:13;;;;;;;28.92;19.92;;;;;;;17.35;100.00;101888.91;5077544;28;20138;-73
2023/10/09 10:33:21;;;;;;;29.52;21.67;;;;;;;17.36;100.00;101888.69;5093038;28;20031;-75
2023/10/09 10:35:52;;;;;;;26.05;20.33;;;;;;;17.37;100.00;101889.50;5093393;28;20093;-76
2023/10/09 10:38:34;;;;;;;27.98;20.50;;;;;;;17.41;100.00;101890.69;5091507;28;20560;-74
2023/10/09 10:41:16;;;;;;;27.38;20.13;;;;;;;17.48;100.00;101882.28;5089400;28;20111;-76
2023/10/09 10:46:37;;;;;;;27.05;20.70;;;;;;;17.59;100.00;101875.94;5073106;28;20040;-73
2023/10/09 10:51:37;;;;;;;31.65;21.05;;;;;;;17.59;100.00;101872.34;5072551;28;20028;-75
2023/10/09 10:56:48;;;;;;;27.27;20.33;;;;;;;17.67;100.00;101869.22;5091117;28;20137;-74
2023/10/09 10:59:13;;;;;;;27.25;19.90;;;;;;;17.70;100.00;101874.22;5091725;28;20487;-74
2023/10/09 11:12:38;;;;;;;31.83;20.75;;;;;;;17.92;100.00;101892.66;5092844;28;20048;-74
2023/10/09 11:18:16;;;;;;;26.65;19.17;;;;;;;17.98;100.00;101888.91;5059300;28;20472;-74
2023/10/09 11:20:53;;;;;;;28.77;19.40;;;;;;;18.02;100.00;101881.88;5072397;28;20028;-73
2023/10/09 11:23:29;;;;;;;25.52;18.30;;;;;;;18.09;100.00;101888.00;5087756;28;20431;-74
2023/10/09 11:26:07;;;;;;;27.13;19.08;;;;;;;18.17;100.00;101884.84;5092616;28;20055;-74
2023/10/09 11:28:48;;;;;;;25.73;18.02;;;;;;;18.24;100.00;101877.28;5090062;28;20032;-75
2023/10/09 11:31:16;;;;;;;23.83;16.77;;;;;;;18.32;100.00;101880.69;5071251;28;20036;-74
2023/10/09 11:33:48;;;;;;;24.75;16.88;;;;;;;18.33;100.00;101874.13;5072308;28;20039;-75
2023/10/09 11:36:21;;;;;;;25.50;16.55;;;;;;;18.33;100.00;101877.69;5072474;28;20029;-75
2023/10/09 11:38:49;;;;;;;22.70;15.63;;;;;;;18.35;100.00;101871.94;5081472;28;20486;-74
2023/10/09 11:41:24;;;;;;;22.92;15.07;;;;;;;18.43;100.00;101879.72;5091373;28;20396;-74
2023/10/09 11:43:51;;;;;;;19.08;13.88;;;;;;;18.53;100.00;101871.66;5070689;28;20133;-73
2023/10/09 11:46:40;;;;;;;22.80;14.63;;;;;;;18.63;100.00;101870.13;5072222;28;20036;-73
2023/10/09 11:52:09;;;;;;;;;;;;;;;18.77;100.00;101885.13;5072634;28;20036;-73
2023/10/09 11:54:33;;;;;;;21.48;13.30;;;;;;;18.75;100.00;101881.78;5071995;28;20379;-75
2023/10/09 11:57:02;;;;;;;21.13;13.98;;;;;;;18.81;100.00;101878.06;5072331;28;20055;-73
2023/10/09 11:59:34;;;;;;;19.30;12.73;;;;;;;18.81;100.00;101883.53;5070946;28;20161;-73
2023/10/09 12:02:03;;;;;;;23.83;13.63;;;;;;;18.83;100.00;101878.63;5069417;28;20028;-73
2023/10/09 12:04:30;;;;;;;20.33;12.77;;;;;;;18.82;100.00;101885.16;5076801;28;20031;-77
2023/10/09 12:07:06;;;;;;;19.27;12.52;;;;;;;18.82;100.00;101882.44;5090943;28;20024;-73
2023/10/09 12:09:34;;;;;;;23.45;12.82;;;;;;;18.82;100.00;101879.69;5092687;28;20032;-73
2023/10/09 12:12:03;;;;;;;20.15;12.15;;;;;;;18.82;100.00;101874.19;5093668;28;20361;-72
2023/10/09 12:14:33;;;;;;;19.27;11.52;;;;;;;18.84;100.00;101874.78;5096020;28;20085;-73
2023/10/09 12:17:05;;;;;;;19.73;11.50;;;;;;;18.90;100.00;101871.06;5094558;28;20036;-73
2023/10/09 12:19:37;;;;;;;20.70;11.90;;;;;;;18.95;100.00;101870.28;5086685;28;20032;-72
2023/10/09 12:22:10;;;;;;;24.10;11.45;;;;;;;18.97;100.00;101875.50;5089829;28;20416;-73
2023/10/09 12:24:37;;;;;;;19.95;10.63;;;;;;;18.95;100.00;101873.84;5083295;28;20082;-74
2023/10/09 12:27:09;;;;;;;21.50;10.50;;;;;;;18.98;100.00;101863.44;5074023;28;20066;-73
2023/10/09 12:29:35;;;;;;;18.23;10.40;;;;;;;19.02;100.00;101857.22;5075559;28;20031;-72
2023/10/09 12:32:01;;;;;;;17.48;10.10;;;;;;;19.03;100.00;101863.50;5075605;28;20024;-73
2023/10/09 12:34:26;;;;;;;15.60;9.90;;;;;;;19.04;100.00;101865.19;5074189;28;20035;-73
2023/10/09 12:36:56;;;;;;;14.02;8.98;;;;;;;19.05;100.00;101867.66;5089393;28;20032;-72
2023/10/09 12:39:22;;;;;;;18.35;9.65;;;;;;;19.04;100.00;101867.94;5094624;28;20064;-73
2023/10/09 12:41:48;;;;;;;15.32;8.95;;;;;;;19.04;100.00;101862.44;5095498;28;20471;-72
2023/10/09 12:44:18;;;;;;;17.92;8.82;;;;;;;19.08;100.00;101855.31;5094407;28;20031;-73
2023/10/09 12:46:51;;;;;;;20.20;9.70;;;;;;;19.12;100.00;101851.00;5075826;28;20029;-73
2023/10/09 12:49:19;;;;;;;16.40;9.52;;;;;;;19.11;100.00;101838.34;5073954;28;20032;-75
2023/10/09 12:51:44;;;;;;;14.77;8.35;;;;;;;19.20;100.00;101847.78;5075352;28;20111;-73
2023/10/09 12:54:10;;;;;;;17.00;8.90;;;;;;;19.21;100.00;101843.94;5075339;28;20028;-73
2023/10/09 12:56:38;;;;;;;18.45;8.30;;;;;;;19.24;100.00;101831.63;5075168;28;20460;-73
2023/10/09 12:59:07;;;;;;;17.85;8.32;;;;;;;19.29;100.00;101823.44;5074633;28;20468;-72
2023/10/09 13:01:42;;;;;;;14.98;8.20;;;;;;;19.29;100.00;101818.78;5090927;28;20068;-72
2023/10/09 13:04:11;;;;;;;13.07;7.85;;;;;;;19.32;100.00;101822.09;5094970;28;20038;-73
2023/10/09 13:06:43;;;;;;;12.90;7.03;;;;;;;19.31;100.00;101818.53;5093868;28;20069;-73
2023/10/09 13:09:09;;;;;;;13.95;8.07;;;;;;;19.34;100.00;101817.16;5093864;28;20360;-74
2023/10/09 13:11:37;;;;;;;12.88;7.68;;;;;;;19.34;100.00;101823.50;5093546;28;20027;-73
2023/10/09 13:14:11;;;;;;;14.68;7.78;;;;;;;19.39;100.00;101819.97;5110581;28;20061;-74
2023/10/09 13:16:37;;;;;;;16.27;7.65;;;;;;;19.41;100.00;101831.50;5089746;28;20063;-75